createdAt,value
2022-10-11T00:00:42.776Z,17.30
2022-10-11T00:03:09.434Z,21.45
2022-10-11T00:05:36.300Z,20.95
2022-10-11T00:08:05.438Z,24.40
2022-10-11T00:10:33.125Z,17.63
2022-10-11T00:12:59.994Z,21.67
2022-10-11T00:15:26.519Z,17.52
2022-10-11T00:17:52.912Z,14.77
2022-10-11T00:20:19.480Z,20.33
2022-10-11T00:22:45.928Z,23.23
2022-10-11T00:25:13.041Z,20.70
2022-10-11T00:27:39.552Z,18.85
2022-10-11T00:30:06.763Z,18.02
2022-10-11T00:32:34.344Z,21.35
2022-10-11T00:35:04.710Z,20.42
2022-10-11T00:37:32.393Z,15.90
2022-10-11T00:39:59.947Z,18.27
2022-10-11T00:42:26.937Z,15.90
2022-10-11T00:45:42.195Z,20.92
2022-10-11T00:48:17.447Z,16.52
2022-10-11T00:50:43.880Z,18.60
2022-10-11T00:53:11.971Z,15.60
2022-10-11T00:55:46.082Z,17.90
2022-10-11T00:58:13.347Z,25.50
2022-10-11T01:00:39.766Z,23.73
2022-10-11T01:03:06.367Z,24.05
2022-10-11T01:05:32.764Z,21.08
2022-10-11T01:08:00.640Z,20.38
2022-10-11T01:10:27.809Z,17.52
2022-10-11T01:13:11.188Z,23.45
2022-10-11T01:15:53.641Z,21.30
2022-10-11T01:18:47.221Z,27.00
2022-10-11T01:21:27.233Z,18.63
2022-10-11T01:24:08.714Z,22.67
2022-10-11T01:27:09.148Z,18.45
2022-10-11T01:29:38.509Z,17.92
2022-10-11T01:35:02.060Z,24.17
2022-10-11T01:37:36.064Z,27.88
2022-10-11T01:40:13.104Z,19.42
2022-10-11T01:42:40.640Z,22.27
2022-10-11T01:45:12.883Z,19.77
2022-10-11T01:47:39.409Z,22.88
2022-10-11T01:50:08.063Z,21.02
2022-10-11T01:52:35.924Z,18.25
2022-10-11T01:55:14.700Z,23.35
2022-10-11T01:57:48.265Z,23.02
2022-10-11T02:00:20.098Z,25.35
2022-10-11T02:03:17.461Z,22.85
2022-10-11T02:06:03.983Z,21.52
2022-10-11T02:08:38.965Z,22.23
2022-10-11T02:11:14.686Z,25.38
2022-10-11T02:13:47.757Z,20.25
2022-10-11T02:16:17.667Z,21.98
2022-10-11T02:18:48.042Z,18.80
2022-10-11T02:21:18.535Z,20.33
2022-10-11T02:23:50.950Z,25.15
2022-10-11T02:26:18.632Z,19.73
2022-10-11T02:28:46.136Z,18.50
2022-10-11T02:31:14.046Z,19.73
2022-10-11T02:33:44.697Z,18.95
2022-10-11T02:36:16.947Z,24.10
2022-10-11T02:38:54.777Z,15.10
2022-10-11T02:41:25.523Z,19.38
2022-10-11T02:43:59.969Z,14.48
2022-10-11T02:46:26.748Z,14.10
2022-10-11T02:48:53.937Z,12.15
2022-10-11T02:51:20.412Z,20.58
2022-10-11T02:53:46.849Z,10.32
2022-10-11T02:56:13.248Z,10.50
2022-10-11T02:58:40.719Z,11.75
2022-10-11T03:01:07.161Z,8.93
2022-10-11T03:03:33.569Z,9.85
2022-10-11T03:06:01.426Z,8.07
2022-10-11T03:08:28.441Z,9.90
2022-10-11T03:10:54.905Z,8.07
2022-10-11T03:13:21.370Z,9.18
2022-10-11T03:16:02.397Z,7.78
2022-10-11T03:18:29.810Z,11.75
2022-10-11T03:20:56.525Z,7.90
2022-10-11T03:23:23.112Z,14.00
2022-10-11T03:25:49.614Z,10.55
2022-10-11T03:28:16.038Z,10.52
2022-10-11T03:30:42.477Z,9.27
2022-10-11T03:33:08.892Z,11.07
2022-10-11T03:35:35.361Z,9.70
2022-10-11T03:38:01.769Z,11.35
2022-10-11T03:40:28.242Z,9.95
2022-10-11T03:42:56.316Z,8.63
2022-10-11T03:45:22.767Z,10.52
2022-10-11T03:47:49.476Z,11.63
2022-10-11T03:50:15.904Z,9.52
2022-10-11T03:52:42.304Z,11.93
2022-10-11T03:55:09.038Z,11.95
2022-10-11T03:57:35.589Z,8.25
2022-10-11T04:00:02.393Z,14.38
2022-10-11T04:02:33.721Z,9.02
2022-10-11T04:05:05.876Z,13.48
2022-10-11T04:07:33.149Z,7.20
2022-10-11T04:09:59.810Z,7.88
2022-10-11T04:12:26.220Z,6.93
2022-10-11T04:14:52.651Z,10.25
2022-10-11T04:17:19.062Z,11.48
2022-10-11T04:19:45.560Z,9.52
2022-10-11T04:22:11.949Z,12.90
2022-10-11T04:24:38.372Z,13.20
2022-10-11T04:27:04.809Z,11.43
2022-10-11T04:29:32.808Z,9.50
2022-10-11T04:31:59.589Z,10.00
2022-10-11T04:34:26.028Z,11.80
2022-10-11T04:36:52.415Z,11.55
2022-10-11T04:39:18.857Z,13.95
2022-10-11T04:41:45.310Z,13.65
2022-10-11T04:44:11.691Z,9.38
2022-10-11T04:46:38.098Z,11.23
2022-10-11T04:49:04.484Z,15.82
2022-10-11T04:51:31.500Z,15.27
2022-10-11T04:53:57.921Z,11.40
2022-10-11T04:56:24.319Z,13.90
2022-10-11T04:58:54.022Z,15.93
2022-10-11T05:01:21.116Z,13.98
2022-10-11T05:03:48.347Z,13.80
2022-10-11T05:06:16.199Z,16.70
2022-10-11T05:08:42.700Z,14.38
2022-10-11T05:11:11.926Z,8.43
2022-10-11T05:13:38.837Z,10.88
2022-10-11T05:16:10.572Z,14.05
2022-10-11T05:18:37.686Z,10.75
2022-10-11T05:21:06.800Z,12.27
2022-10-11T05:23:34.896Z,18.25
2022-10-11T05:26:01.790Z,13.85
2022-10-11T05:28:28.791Z,10.63
2022-10-11T05:30:55.265Z,14.27
2022-10-11T05:33:21.819Z,16.48
2022-10-11T05:35:48.233Z,20.60
2022-10-11T05:38:14.654Z,14.45
2022-10-11T05:40:41.052Z,12.00
2022-10-11T05:43:07.580Z,18.60
2022-10-11T05:45:40.958Z,12.60
2022-10-11T05:48:08.188Z,11.15
2022-10-11T05:50:35.540Z,15.25
2022-10-11T05:53:02.879Z,13.75
2022-10-11T05:55:29.267Z,11.35
2022-10-11T05:57:57.005Z,11.77
2022-10-11T06:00:24.422Z,11.00
2022-10-11T06:02:50.835Z,15.50
2022-10-11T06:05:17.276Z,16.35
2022-10-11T06:07:43.912Z,14.85
2022-10-11T06:10:10.670Z,18.38
2022-10-11T06:12:37.385Z,15.50
2022-10-11T06:15:04.470Z,13.45
2022-10-11T06:17:30.868Z,13.05
2022-10-11T06:19:57.347Z,12.45
2022-10-11T06:22:24.024Z,13.77
2022-10-11T06:24:50.624Z,8.95
2022-10-11T06:27:17.043Z,12.95
2022-10-11T06:29:43.452Z,13.05
2022-10-11T06:32:09.932Z,13.75
2022-10-11T06:34:36.370Z,13.70
2022-10-11T06:37:02.812Z,15.75
2022-10-11T06:39:29.214Z,12.65
2022-10-11T06:41:55.632Z,11.88
2022-10-11T06:44:22.050Z,11.70
2022-10-11T06:46:48.499Z,10.88
2022-10-11T06:49:18.207Z,12.77
2022-10-11T06:51:47.232Z,15.30
2022-10-11T06:54:13.689Z,15.52
2022-10-11T06:56:40.723Z,13.10
2022-10-11T06:59:07.188Z,16.08
2022-10-11T07:01:33.772Z,11.05
2022-10-11T07:04:01.500Z,13.57
2022-10-11T07:06:30.407Z,13.13
2022-10-11T07:08:57.376Z,14.25
2022-10-11T07:11:25.855Z,18.40
2022-10-11T07:13:56.535Z,12.27
2022-10-11T07:16:23.463Z,18.40
2022-10-11T07:18:58.769Z,12.77
2022-10-11T07:21:27.208Z,13.18
2022-10-11T07:23:53.611Z,17.05
2022-10-11T07:26:20.016Z,14.68
2022-10-11T07:28:47.056Z,17.50
2022-10-11T07:31:17.220Z,17.42
2022-10-11T07:33:43.739Z,18.33
2022-10-11T07:36:10.855Z,13.70
2022-10-11T07:38:41.325Z,15.45
2022-10-11T07:41:08.185Z,15.77
2022-10-11T07:43:34.588Z,12.95
2022-10-11T07:46:04.405Z,17.60
2022-10-11T07:48:32.324Z,14.55
2022-10-11T07:51:10.252Z,11.93
2022-10-11T07:53:41.055Z,12.73
2022-10-11T07:56:09.152Z,12.60
2022-10-11T07:58:35.764Z,12.52
2022-10-11T08:01:03.839Z,17.20
2022-10-11T08:03:30.363Z,13.50
2022-10-11T08:06:05.715Z,13.02
2022-10-11T08:08:32.456Z,12.57
2022-10-11T08:10:59.311Z,15.40
2022-10-11T08:13:26.087Z,18.60
2022-10-11T08:15:52.714Z,13.20
2022-10-11T08:18:19.516Z,12.00
2022-10-11T08:20:46.011Z,14.43
2022-10-11T08:23:12.660Z,16.48
2022-10-11T08:25:40.861Z,15.88
2022-10-11T08:28:07.521Z,15.40
2022-10-11T08:30:34.208Z,14.70
2022-10-11T08:33:03.030Z,13.43
2022-10-11T08:35:32.654Z,12.40
2022-10-11T08:37:59.030Z,10.48
2022-10-11T08:40:25.781Z,15.27
2022-10-11T08:42:58.416Z,14.40
2022-10-11T08:45:31.344Z,17.30
2022-10-11T08:48:12.708Z,17.13
2022-10-11T08:50:39.683Z,15.63
2022-10-11T08:53:15.396Z,12.65
2022-10-11T08:55:45.538Z,16.45
2022-10-11T08:58:15.936Z,16.08
2022-10-11T09:00:43.819Z,15.23
2022-10-11T09:03:30.650Z,15.25
2022-10-11T09:06:25.152Z,12.23
2022-10-11T09:09:12.313Z,15.32
2022-10-11T09:12:00.609Z,13.10
2022-10-11T09:14:59.695Z,17.05
2022-10-11T09:17:48.645Z,17.75
2022-10-11T09:20:44.053Z,16.52
2022-10-11T09:23:23.531Z,14.75
2022-10-11T09:25:55.100Z,13.77
2022-10-11T09:28:24.198Z,15.70
2022-10-11T09:30:52.902Z,12.57
2022-10-11T09:33:38.902Z,12.25
2022-10-11T09:36:17.155Z,19.63
2022-10-11T09:38:51.157Z,14.73
2022-10-11T09:41:29.632Z,12.10
2022-10-11T09:43:56.020Z,13.00
2022-10-11T09:46:42.695Z,11.73
2022-10-11T09:49:12.445Z,10.95
2022-10-11T09:51:41.748Z,14.35
2022-10-11T09:56:42.130Z,13.55
2022-10-11T09:59:30.896Z,15.05
2022-10-11T10:02:12.470Z,11.35
2022-10-11T10:05:14.005Z,12.02
2022-10-11T10:08:00.592Z,14.02
2022-10-11T10:10:41.396Z,12.93
2022-10-11T10:13:19.855Z,15.17
2022-10-11T10:15:48.977Z,14.23
2022-10-11T10:18:34.445Z,10.15
2022-10-11T10:21:01.796Z,13.70
2022-10-11T10:23:36.283Z,12.18
2022-10-11T10:26:24.208Z,11.90
2022-10-11T10:29:10.247Z,10.45
2022-10-11T10:35:06.265Z,10.48
2022-10-11T10:37:36.602Z,10.70
2022-10-11T10:40:09.794Z,14.77
2022-10-11T10:42:36.948Z,11.60
2022-10-11T10:45:07.333Z,15.15
2022-10-11T10:47:43.635Z,14.40
2022-10-11T10:50:19.285Z,11.45
2022-10-11T10:52:45.574Z,9.65
2022-10-11T10:55:27.632Z,12.02
2022-10-11T10:58:07.148Z,16.40
2022-10-11T11:00:44.354Z,9.82
2022-10-11T11:03:19.733Z,13.02
2022-10-11T11:06:01.336Z,14.25
2022-10-11T11:09:12.719Z,10.48
2022-10-11T11:11:48.645Z,13.52
2022-10-11T11:14:24.868Z,10.38
2022-10-11T11:17:30.226Z,12.35
2022-10-11T11:20:24.876Z,9.57
2022-10-11T11:22:56.759Z,8.50
2022-10-11T11:26:01.100Z,12.57
2022-10-11T11:28:38.766Z,13.50
2022-10-11T11:31:23.809Z,11.75
2022-10-11T11:33:53.238Z,11.23
2022-10-11T11:36:27.080Z,9.50
2022-10-11T11:38:59.981Z,10.07
2022-10-11T11:41:30.956Z,10.90
2022-10-11T11:44:09.305Z,10.98
2022-10-11T11:46:44.668Z,10.40
2022-10-11T11:49:14.848Z,9.57
2022-10-11T11:51:46.235Z,8.80
2022-10-11T11:54:19.680Z,11.48
2022-10-11T11:56:55.107Z,11.50
2022-10-11T11:59:24.543Z,10.98
2022-10-11T12:02:08.924Z,9.13
2022-10-11T12:04:38.708Z,9.65
2022-10-11T12:07:16.777Z,9.60
2022-10-11T12:09:45.948Z,8.13
2022-10-11T12:12:29.674Z,7.32
2022-10-11T12:15:18.735Z,14.38
2022-10-11T12:17:57.479Z,7.72
2022-10-11T12:20:31.488Z,7.55
2022-10-11T12:23:00.360Z,8.73
2022-10-11T12:25:39.517Z,9.40
2022-10-11T12:28:36.934Z,10.73
2022-10-11T12:31:06.701Z,8.82
2022-10-11T12:33:33.189Z,10.45
2022-10-11T12:36:22.281Z,10.82
2022-10-11T12:39:20.414Z,8.52
2022-10-11T12:41:53.393Z,8.02
2022-10-11T12:44:26.128Z,7.75
2022-10-11T12:46:55.514Z,8.48
2022-10-11T12:52:22.023Z,8.13
2022-10-11T12:55:10.160Z,10.43
2022-10-11T12:57:36.435Z,11.55
2022-10-11T13:00:20.709Z,8.50
2022-10-11T13:02:48.601Z,8.77
2022-10-11T13:05:45.154Z,9.02
2022-10-11T13:08:16.807Z,9.98
2022-10-11T13:10:46.133Z,7.50
2022-10-11T13:15:48.277Z,10.32
2022-10-11T13:18:16.165Z,7.28
2022-10-11T13:20:43.311Z,7.32
2022-10-11T13:23:25.691Z,8.65
2022-10-11T13:25:52.876Z,7.82
2022-10-11T13:28:20.269Z,9.15
2022-10-11T13:30:49.997Z,9.93
2022-10-11T13:33:37.472Z,10.05
2022-10-11T13:36:05.628Z,9.82
2022-10-11T13:38:34.977Z,6.03
2022-10-11T13:43:30.918Z,10.55
2022-10-11T13:45:58.959Z,8.75
2022-10-11T13:48:30.740Z,7.10
2022-10-11T13:51:05.413Z,8.88
2022-10-11T13:53:31.967Z,8.88
2022-10-11T13:56:05.016Z,6.97
2022-10-11T13:58:38.572Z,7.38
2022-10-11T14:01:07.855Z,8.85
2022-10-11T14:03:40.800Z,10.57
2022-10-11T14:06:08.164Z,10.38
2022-10-11T14:08:43.281Z,7.78
2022-10-11T14:11:11.579Z,8.48
2022-10-11T14:13:45.895Z,6.50
2022-10-11T14:16:27.048Z,11.70
2022-10-11T14:18:59.480Z,11.77
2022-10-11T14:21:51.116Z,10.73
2022-10-11T14:24:18.377Z,8.00
2022-10-11T14:26:48.058Z,9.98
2022-10-11T14:29:22.165Z,6.95
2022-10-11T14:31:49.409Z,7.82
2022-10-11T14:34:23.464Z,8.40
2022-10-11T14:36:50.631Z,8.65
2022-10-11T14:39:19.281Z,10.18
2022-10-11T14:41:46.289Z,8.30
2022-10-11T14:44:13.460Z,6.18
2022-10-11T14:46:41.163Z,8.48
2022-10-11T14:49:20.535Z,8.23
2022-10-11T14:51:48.711Z,9.23
2022-10-11T14:54:16.279Z,10.73
2022-10-11T14:56:42.696Z,6.63
2022-10-11T14:59:13.842Z,6.88
2022-10-11T15:01:40.376Z,9.27
2022-10-11T15:04:06.812Z,8.55
2022-10-11T15:06:37.112Z,7.65
2022-10-11T15:09:04.751Z,6.13
2022-10-11T15:11:31.330Z,6.00
2022-10-11T15:13:57.745Z,11.40
2022-10-11T15:16:25.213Z,7.60
2022-10-11T15:18:51.846Z,8.00
2022-10-11T15:21:23.358Z,11.32
2022-10-11T15:23:51.003Z,11.07
2022-10-11T15:26:22.896Z,8.60
2022-10-11T15:28:50.044Z,9.02
2022-10-11T15:31:17.572Z,9.02
2022-10-11T15:33:43.984Z,9.02
2022-10-11T15:36:16.280Z,10.43
2022-10-11T15:38:43.076Z,9.68
2022-10-11T15:41:12.860Z,7.05
2022-10-11T15:43:40.101Z,9.32
2022-10-11T15:46:07.054Z,8.23
2022-10-11T15:48:33.912Z,7.90
2022-10-11T15:51:00.381Z,11.10
2022-10-11T15:53:30.856Z,8.45
2022-10-11T15:55:59.631Z,10.25
2022-10-11T15:58:32.563Z,9.38
2022-10-11T16:01:02.506Z,7.45
2022-10-11T16:03:30.000Z,7.13
2022-10-11T16:06:02.399Z,8.52
2022-10-11T16:08:31.221Z,6.18
2022-10-11T16:10:58.817Z,9.18
2022-10-11T16:13:25.213Z,9.43
2022-10-11T16:15:51.889Z,5.22
2022-10-11T16:18:20.959Z,11.50
2022-10-11T16:20:48.972Z,6.97
2022-10-11T16:23:15.621Z,7.05
2022-10-11T16:25:43.065Z,8.13
2022-10-11T16:28:09.899Z,5.18
2022-10-11T16:30:42.988Z,8.95
2022-10-11T16:33:09.496Z,7.90
2022-10-11T16:35:36.022Z,8.90
2022-10-11T16:38:02.507Z,6.28
2022-10-11T16:40:29.995Z,8.35
2022-10-11T16:42:56.419Z,13.52
2022-10-11T16:45:23.120Z,8.98
2022-10-11T16:47:49.573Z,12.32
2022-10-11T16:50:16.151Z,6.65
2022-10-11T16:52:42.661Z,10.90
2022-10-11T16:55:09.229Z,8.23
2022-10-11T16:57:37.583Z,8.02
2022-10-11T17:00:08.464Z,11.30
2022-10-11T17:02:35.411Z,9.70
2022-10-11T17:05:02.212Z,9.82
2022-10-11T17:07:28.661Z,7.13
2022-10-11T17:09:55.218Z,8.52
2022-10-11T17:12:23.733Z,9.52
2022-10-11T17:14:50.375Z,8.13
2022-10-11T17:17:18.010Z,4.95
2022-10-11T17:19:45.535Z,8.52
2022-10-11T17:22:14.289Z,6.05
2022-10-11T17:24:40.747Z,7.82
2022-10-11T17:27:07.433Z,8.27
2022-10-11T17:29:33.894Z,6.82
2022-10-11T17:32:00.567Z,8.90
2022-10-11T17:34:26.992Z,9.57
2022-10-11T17:36:53.388Z,6.50
2022-10-11T17:39:21.612Z,11.02
2022-10-11T17:41:48.189Z,6.65
2022-10-11T17:44:17.132Z,6.88
2022-10-11T17:46:43.540Z,5.80
2022-10-11T17:49:11.487Z,12.88
2022-10-11T17:51:39.628Z,8.48
2022-10-11T17:54:06.473Z,7.63
2022-10-11T17:56:37.736Z,8.50
2022-10-11T17:59:04.620Z,9.80
2022-10-11T18:01:31.169Z,7.70
2022-10-11T18:04:00.365Z,6.65
2022-10-11T18:06:29.141Z,8.25
2022-10-11T18:08:57.137Z,10.20
2022-10-11T18:11:24.329Z,7.35
2022-10-11T18:13:52.392Z,8.05
2022-10-11T18:16:21.701Z,8.93
2022-10-11T18:21:14.767Z,8.02
2022-10-11T18:23:41.305Z,8.57
2022-10-11T18:26:17.323Z,8.52
2022-10-11T18:28:43.993Z,6.68
2022-10-11T18:31:13.945Z,7.88
2022-10-11T18:33:41.932Z,13.40
2022-10-11T18:36:09.290Z,11.05
2022-10-11T18:38:37.710Z,10.93
2022-10-11T18:41:08.810Z,10.27
2022-10-11T18:43:36.162Z,9.98
2022-10-11T18:46:13.701Z,10.95
2022-10-11T18:48:41.965Z,10.27
2022-10-11T18:51:11.524Z,10.80
2022-10-11T18:53:38.385Z,9.52
2022-10-11T18:56:07.171Z,12.95
2022-10-11T18:58:35.100Z,6.65
2022-10-11T19:01:09.493Z,8.18
2022-10-11T19:03:36.078Z,9.75
2022-10-11T19:06:07.915Z,8.88
2022-10-11T19:08:34.679Z,6.70
2022-10-11T19:11:08.399Z,13.20
2022-10-11T19:13:35.549Z,9.95
2022-10-11T19:16:20.181Z,8.10
2022-10-11T19:18:49.697Z,12.00
2022-10-11T19:21:16.281Z,9.25
2022-10-11T19:23:44.696Z,12.32
2022-10-11T19:26:20.104Z,10.50
2022-10-11T19:28:47.278Z,9.32
2022-10-11T19:31:16.773Z,11.95
2022-10-11T19:33:44.664Z,10.35
2022-10-11T19:36:13.430Z,13.93
2022-10-11T19:38:43.394Z,8.10
2022-10-11T19:41:09.819Z,9.65
2022-10-11T19:43:36.218Z,15.25
2022-10-11T19:46:04.252Z,12.25
2022-10-11T19:48:31.202Z,12.25
2022-10-11T19:51:08.217Z,11.07
2022-10-11T19:53:34.965Z,7.38
2022-10-11T19:56:07.308Z,10.55
2022-10-11T19:58:33.749Z,9.48
2022-10-11T20:01:01.756Z,9.93
2022-10-11T20:03:28.200Z,9.57
2022-10-11T20:05:54.646Z,8.40
2022-10-11T20:08:21.602Z,11.88
2022-10-11T20:10:48.056Z,8.85
2022-10-11T20:13:14.449Z,11.05
2022-10-11T20:15:40.900Z,9.80
2022-10-11T20:18:07.346Z,13.15
2022-10-11T20:20:33.747Z,11.05
2022-10-11T20:23:00.158Z,8.38
2022-10-11T20:25:26.536Z,6.90
2022-10-11T20:27:52.912Z,11.95
2022-10-11T20:30:19.617Z,14.98
2022-10-11T20:32:46.144Z,10.18
2022-10-11T20:35:12.555Z,9.75
2022-10-11T20:37:38.952Z,10.23
2022-10-11T20:40:05.824Z,8.65
2022-10-11T20:42:32.322Z,14.43
2022-10-11T20:44:59.011Z,11.05
2022-10-11T20:47:25.517Z,14.10
2022-10-11T20:49:51.952Z,9.80
2022-10-11T20:52:18.353Z,8.75
2022-10-11T20:54:44.795Z,10.45
2022-10-11T20:57:11.381Z,15.98
2022-10-11T20:59:37.896Z,9.15
2022-10-11T21:02:04.292Z,12.48
2022-10-11T21:04:30.789Z,11.63
2022-10-11T21:06:57.189Z,10.27
2022-10-11T21:09:23.737Z,9.25
2022-10-11T21:11:50.145Z,9.43
2022-10-11T21:14:17.116Z,9.98
2022-10-11T21:16:43.684Z,10.00
2022-10-11T21:19:12.673Z,8.45
2022-10-11T21:21:39.067Z,11.50
2022-10-11T21:24:05.693Z,10.20
2022-10-11T21:26:32.120Z,8.98
2022-10-11T21:29:03.766Z,11.85
2022-10-11T21:31:34.073Z,9.77
2022-10-11T21:34:01.834Z,11.40
2022-10-11T21:36:28.283Z,10.73
2022-10-11T21:38:54.779Z,11.93
2022-10-11T21:41:23.347Z,10.50
2022-10-11T21:43:49.759Z,9.10
2022-10-11T21:46:21.313Z,9.98
2022-10-11T21:48:48.082Z,10.25
2022-10-11T21:51:16.584Z,7.40
2022-10-11T21:53:43.004Z,8.77
2022-10-11T21:56:09.400Z,10.77
2022-10-11T21:58:35.801Z,6.40
2022-10-11T22:01:02.240Z,7.50
2022-10-11T22:03:28.675Z,14.77
2022-10-11T22:05:55.094Z,5.18
2022-10-11T22:08:22.401Z,10.55
2022-10-11T22:10:53.984Z,8.95
2022-10-11T22:13:20.483Z,8.13
2022-10-11T22:15:47.032Z,6.43
2022-10-11T22:18:13.436Z,5.38
2022-10-11T22:20:39.852Z,5.68
2022-10-11T22:23:06.416Z,6.70
2022-10-11T22:25:35.392Z,7.45
2022-10-11T22:28:01.858Z,8.63
2022-10-11T22:30:29.477Z,10.20
2022-10-11T22:32:55.893Z,10.93
2022-10-11T22:35:22.683Z,8.38
2022-10-11T22:37:52.387Z,8.15
2022-10-11T22:42:45.988Z,9.43
2022-10-11T22:45:12.502Z,8.85
2022-10-11T22:47:39.089Z,10.27
2022-10-11T22:50:05.836Z,8.23
2022-10-11T22:52:32.247Z,9.52
2022-10-11T22:54:58.644Z,8.05
2022-10-11T22:57:25.084Z,6.55
2022-10-11T22:59:51.494Z,9.80
2022-10-11T23:02:17.912Z,5.28
2022-10-11T23:04:44.348Z,8.68
2022-10-11T23:07:10.763Z,9.98
2022-10-11T23:09:37.159Z,6.22
2022-10-11T23:12:03.664Z,9.05
2022-10-11T23:14:30.078Z,9.07
2022-10-11T23:16:56.476Z,15.10
2022-10-11T23:19:22.885Z,6.95
2022-10-11T23:21:49.330Z,10.90
2022-10-11T23:24:15.746Z,8.43
2022-10-11T23:26:42.272Z,6.10
2022-10-11T23:29:08.655Z,5.43
2022-10-11T23:31:35.068Z,8.57
2022-10-11T23:34:01.443Z,7.32
2022-10-11T23:36:27.861Z,11.75
2022-10-11T23:38:57.186Z,6.88
2022-10-11T23:41:25.563Z,8.20
2022-10-11T23:43:52.130Z,6.53
2022-10-11T23:46:18.622Z,9.35
2022-10-11T23:48:45.031Z,8.52
2022-10-11T23:51:11.924Z,7.85
2022-10-11T23:53:38.314Z,8.05
2022-10-11T23:56:05.474Z,8.80
2022-10-11T23:58:31.935Z,7.90
